createdAt,value
2022-07-27T00:04:58.226Z,4.25
2022-07-27T00:09:59.853Z,1.50
2022-07-27T00:15:01.330Z,4.28
2022-07-27T00:20:02.907Z,2.92
2022-07-27T00:25:04.531Z,6.00
2022-07-27T00:30:06.323Z,5.80
2022-07-27T00:35:08.267Z,2.78
2022-07-27T00:40:10.231Z,5.97
2022-07-27T00:45:11.909Z,8.02
2022-07-27T00:50:13.771Z,3.03
2022-07-27T00:55:16.032Z,4.65
2022-07-27T01:00:17.722Z,6.53
2022-07-27T01:05:20.314Z,6.65
2022-07-27T01:10:22.135Z,4.82
2022-07-27T01:15:23.739Z,2.35
2022-07-27T01:20:25.512Z,2.53
2022-07-27T01:25:26.993Z,7.90
2022-07-27T01:30:30.389Z,3.30
2022-07-27T01:35:32.440Z,10.23
2022-07-27T01:40:34.254Z,7.10
2022-07-27T01:45:35.750Z,6.32
2022-07-27T01:50:38.471Z,7.78
2022-07-27T01:55:39.997Z,7.57
2022-07-27T02:00:41.782Z,3.65
2022-07-27T02:05:43.528Z,7.63
2022-07-27T02:11:03.826Z,4.88
2022-07-27T02:16:05.540Z,4.47
2022-07-27T02:21:18.266Z,8.55
2022-07-27T02:26:19.739Z,4.60
2022-07-27T02:31:21.289Z,7.68
2022-07-27T02:36:23.004Z,4.45
2022-07-27T02:41:24.583Z,4.97
2022-07-27T02:46:26.117Z,3.33
2022-07-27T02:51:27.629Z,5.10
2022-07-27T02:56:29.085Z,4.70
2022-07-27T03:01:30.583Z,6.38
2022-07-27T03:06:32.127Z,4.22
2022-07-27T03:11:33.669Z,5.93
2022-07-27T03:16:35.387Z,7.75
2022-07-27T03:21:36.859Z,3.72
2022-07-27T03:26:38.325Z,3.53
2022-07-27T03:31:39.766Z,4.38
2022-07-27T03:36:43.212Z,3.85
2022-07-27T03:41:44.766Z,6.93
2022-07-27T03:46:46.395Z,6.43
2022-07-27T03:51:47.854Z,8.60
2022-07-27T03:56:49.408Z,10.25
2022-07-27T04:01:51.023Z,6.13
2022-07-27T04:06:52.472Z,10.93
2022-07-27T04:11:54.210Z,7.10
2022-07-27T04:16:57.287Z,9.13
2022-07-27T04:21:58.907Z,4.47
2022-07-27T04:27:00.387Z,4.32
2022-07-27T04:32:01.862Z,8.10
2022-07-27T04:37:03.586Z,3.30
2022-07-27T04:42:05.107Z,7.18
2022-07-27T04:47:06.680Z,9.48
2022-07-27T04:52:08.170Z,9.57
2022-07-27T04:57:09.667Z,3.72
2022-07-27T05:02:11.111Z,5.80
2022-07-27T05:07:12.631Z,4.53
2022-07-27T05:12:14.150Z,7.00
2022-07-27T05:17:15.601Z,5.40
2022-07-27T05:22:17.256Z,4.13
2022-07-27T05:27:18.746Z,10.32
2022-07-27T05:32:20.208Z,3.80
2022-07-27T05:37:21.670Z,4.22
2022-07-27T05:42:23.141Z,3.05
2022-07-27T05:47:24.615Z,3.15
2022-07-27T05:52:26.092Z,8.45
2022-07-27T05:57:27.536Z,9.93
2022-07-27T06:02:31.645Z,3.17
2022-07-27T06:07:51.674Z,5.15
2022-07-27T06:12:53.182Z,5.23
2022-07-27T06:17:54.731Z,4.25
2022-07-27T06:22:57.839Z,5.53
2022-07-27T06:27:59.402Z,5.00
2022-07-27T06:33:01.638Z,4.97
2022-07-27T06:38:03.174Z,4.53
2022-07-27T06:43:04.748Z,6.45
2022-07-27T06:48:06.320Z,6.57
2022-07-27T06:53:07.920Z,4.80
2022-07-27T06:58:09.404Z,9.13
2022-07-27T07:03:11.431Z,5.43
2022-07-27T07:08:14.662Z,8.63
2022-07-27T07:13:16.594Z,5.22
2022-07-27T07:18:18.059Z,2.97
2022-07-27T07:23:19.523Z,0.43
2022-07-27T07:28:22.336Z,3.75
2022-07-27T07:33:23.883Z,0.47
2022-07-27T07:38:25.343Z,1.27
2022-07-27T07:43:27.350Z,1.42
2022-07-27T07:48:28.975Z,0.50
2022-07-27T07:53:30.465Z,2.22
2022-07-27T07:58:31.944Z,0.30
2022-07-27T08:03:33.527Z,0.35
2022-07-27T08:08:35.156Z,0.10
2022-07-27T08:13:36.641Z,1.13
2022-07-27T08:18:38.170Z,0.82
2022-07-27T08:23:39.661Z,2.30
2022-07-27T08:28:41.116Z,0.30
2022-07-27T08:33:42.579Z,0.10
2022-07-27T08:38:44.042Z,0.22
2022-07-27T08:43:48.582Z,0.57
2022-07-27T08:48:50.435Z,0.03
2022-07-27T08:53:54.014Z,0.10
2022-07-27T08:58:55.717Z,0.00
2022-07-27T09:03:57.203Z,0.00
2022-07-27T09:08:59.378Z,0.10
2022-07-27T09:14:04.609Z,0.00
2022-07-27T09:19:07.324Z,0.00
2022-07-27T09:24:23.366Z,0.00
2022-07-27T09:29:35.899Z,0.13
2022-07-27T09:34:38.694Z,0.00
2022-07-27T09:39:40.184Z,0.00
2022-07-27T09:44:44.799Z,0.00
2022-07-27T09:49:46.783Z,0.00
2022-07-27T09:54:48.281Z,0.08
2022-07-27T10:00:07.914Z,0.20
2022-07-27T10:05:10.105Z,2.13
2022-07-27T10:10:13.344Z,3.92
2022-07-27T10:15:14.879Z,0.20
2022-07-27T10:20:17.126Z,0.08
2022-07-27T10:25:18.697Z,0.00
2022-07-27T10:30:24.146Z,0.10
2022-07-27T10:35:33.015Z,0.32
2022-07-27T10:40:34.595Z,0.10
2022-07-27T10:46:00.944Z,0.20
2022-07-27T10:51:05.071Z,0.00
2022-07-27T10:56:07.275Z,0.00
2022-07-27T11:01:09.140Z,0.08
2022-07-27T11:07:04.685Z,0.00
2022-07-27T11:11:42.230Z,0.00
2022-07-27T11:16:54.889Z,0.00
2022-07-27T11:21:58.048Z,0.43
2022-07-27T11:26:59.839Z,0.20
2022-07-27T11:32:01.599Z,0.00
2022-07-27T11:37:05.809Z,0.00
2022-07-27T11:42:12.368Z,0.10
2022-07-27T11:47:19.928Z,0.00
2022-07-27T11:52:21.484Z,0.10
2022-07-27T11:57:30.602Z,0.00
2022-07-27T12:02:32.277Z,0.47
2022-07-27T12:07:35.527Z,0.10
2022-07-27T12:12:37.622Z,0.00
2022-07-27T12:17:39.905Z,0.00
2022-07-27T12:22:45.719Z,0.13
2022-07-27T12:27:54.464Z,0.00
2022-07-27T12:32:55.910Z,0.00
2022-07-27T12:37:58.898Z,1.63
2022-07-27T12:43:02.260Z,0.00
2022-07-27T12:48:04.907Z,0.10
2022-07-27T12:53:06.731Z,0.10
2022-07-27T12:58:10.272Z,1.25
2022-07-27T13:03:11.876Z,0.10
2022-07-27T13:08:16.927Z,0.50
2022-07-27T13:13:24.119Z,0.40
2022-07-27T13:18:25.584Z,0.10
2022-07-27T13:23:27.083Z,0.10
2022-07-27T13:28:28.642Z,0.22
2022-07-27T13:33:30.195Z,0.10
2022-07-27T13:38:31.759Z,2.28
2022-07-27T13:43:33.278Z,3.17
2022-07-27T13:48:34.832Z,0.10
2022-07-27T13:53:36.380Z,0.20
2022-07-27T13:58:41.047Z,0.20
2022-07-27T14:03:42.534Z,0.82
2022-07-27T14:08:46.705Z,0.25
2022-07-27T14:13:48.214Z,0.10
2022-07-27T14:18:49.812Z,1.38
2022-07-27T14:23:51.307Z,0.10
2022-07-27T14:28:54.767Z,0.08
2022-07-27T14:33:56.279Z,0.10
2022-07-27T14:38:57.811Z,0.17
2022-07-27T14:43:59.271Z,0.10
2022-07-27T14:49:06.166Z,0.10
2022-07-27T14:54:08.156Z,0.20
2022-07-27T14:59:10.056Z,0.28
2022-07-27T15:04:11.786Z,0.10
2022-07-27T15:09:13.625Z,0.20
2022-07-27T15:14:17.011Z,0.98
2022-07-27T15:19:18.636Z,0.80
2022-07-27T15:24:20.118Z,1.27
2022-07-27T15:29:21.678Z,0.10
2022-07-27T15:34:23.137Z,0.30
2022-07-27T15:39:25.077Z,0.20
2022-07-27T15:44:26.891Z,0.52
2022-07-27T15:49:28.690Z,0.63
2022-07-27T15:54:33.894Z,0.45
2022-07-27T15:59:37.389Z,0.50
2022-07-27T16:04:39.877Z,0.15
2022-07-27T16:09:41.401Z,0.40
2022-07-27T16:14:44.223Z,0.15
2022-07-27T16:19:45.687Z,0.20
2022-07-27T16:24:47.172Z,0.47
2022-07-27T16:29:48.622Z,0.28
2022-07-27T16:34:50.086Z,0.35
2022-07-27T16:39:51.530Z,0.25
2022-07-27T16:44:52.974Z,0.30
2022-07-27T16:49:54.507Z,0.60
2022-07-27T16:54:56.035Z,0.30
2022-07-27T16:59:59.002Z,0.13
2022-07-27T17:05:00.483Z,0.30
2022-07-27T17:10:02.041Z,0.30
2022-07-27T17:15:03.732Z,0.13
2022-07-27T17:20:05.482Z,1.65
2022-07-27T17:25:07.075Z,0.10
2022-07-27T17:30:09.003Z,0.22
2022-07-27T17:35:10.490Z,0.10
2022-07-27T17:40:13.526Z,2.05
2022-07-27T17:45:15.318Z,0.20
2022-07-27T17:50:16.770Z,0.30
2022-07-27T17:55:18.298Z,4.13
2022-07-27T18:00:20.071Z,0.47
2022-07-27T18:05:21.597Z,2.05
2022-07-27T18:10:23.611Z,2.92
2022-07-27T18:15:43.628Z,2.33
2022-07-27T18:20:46.264Z,0.70
2022-07-27T18:25:47.950Z,0.80
2022-07-27T18:30:50.656Z,2.17
2022-07-27T18:35:52.801Z,2.58
2022-07-27T18:40:55.515Z,1.00
2022-07-27T18:45:57.099Z,0.40
2022-07-27T18:50:58.681Z,0.73
2022-07-27T18:56:00.178Z,1.38
2022-07-27T19:01:01.763Z,0.43
2022-07-27T19:06:03.360Z,0.30
2022-07-27T19:11:04.832Z,0.75
2022-07-27T19:16:06.347Z,0.20
2022-07-27T19:21:07.807Z,5.07
2022-07-27T19:26:10.284Z,1.85
2022-07-27T19:31:23.509Z,1.02
2022-07-27T19:36:25.336Z,1.83
2022-07-27T19:41:26.903Z,0.45
2022-07-27T19:46:28.544Z,0.80
2022-07-27T19:51:30.124Z,0.43
2022-07-27T19:56:36.814Z,0.30
2022-07-27T20:01:39.195Z,0.40
2022-07-27T20:06:41.014Z,0.95
2022-07-27T20:11:42.533Z,1.20
2022-07-27T20:16:44.197Z,0.43
2022-07-27T20:21:45.778Z,3.10
2022-07-27T20:26:49.297Z,3.72
2022-07-27T20:31:52.147Z,0.50
2022-07-27T20:36:57.074Z,1.50
2022-07-27T20:41:58.607Z,1.20
2022-07-27T20:47:00.343Z,2.17
2022-07-27T20:52:01.883Z,1.38
2022-07-27T20:57:03.414Z,0.63
2022-07-27T21:02:05.271Z,0.40
2022-07-27T21:07:06.871Z,3.20
2022-07-27T21:12:08.400Z,3.22
2022-07-27T21:17:09.921Z,6.35
2022-07-27T21:22:11.369Z,2.58
2022-07-27T21:27:12.882Z,2.47
2022-07-27T21:32:14.415Z,1.50
2022-07-27T21:37:16.043Z,2.03
2022-07-27T21:42:17.499Z,1.20
2022-07-27T21:47:18.967Z,0.85
2022-07-27T21:52:20.415Z,0.70
2022-07-27T21:57:21.959Z,1.10
2022-07-27T22:02:23.486Z,1.02
2022-07-27T22:07:29.811Z,1.08
2022-07-27T22:12:31.300Z,0.45
2022-07-27T22:17:32.773Z,0.40
2022-07-27T22:22:34.475Z,0.30
2022-07-27T22:27:35.935Z,1.27
2022-07-27T22:32:37.463Z,1.02
2022-07-27T22:37:38.971Z,0.30
2022-07-27T22:42:40.436Z,1.10
2022-07-27T22:47:42.636Z,1.42
2022-07-27T22:52:44.086Z,0.95
2022-07-27T22:57:45.583Z,2.78
2022-07-27T23:02:47.090Z,0.55
2022-07-27T23:07:49.023Z,1.92
2022-07-27T23:12:50.466Z,0.40
2022-07-27T23:17:52.006Z,2.13
2022-07-27T23:22:53.731Z,0.88
2022-07-27T23:27:55.759Z,1.48
2022-07-27T23:32:57.310Z,0.93
2022-07-27T23:37:58.927Z,0.70
2022-07-27T23:43:00.441Z,0.60
2022-07-27T23:48:02.038Z,0.30
2022-07-27T23:53:03.566Z,1.58
2022-07-27T23:58:05.030Z,1.60
